Aérodrome :
LOGIN :

S'inscrire | Disclaimer

   EN    FR    IT 

 










Légende :    VFR   VFR Marginal   IFR   IFR Intensif   IFR Très Intensif
Visi : 
Plafond : 
>= 8 km
>= 3000ft
5 à 8 km
1000 à 3000 ft
1500m à 5 km
500 à 1000 ft
800 à 1500m
200 à 500 ft
< 800m
< 200 ft
Symboles :   Orages  Brouillard  Fortes neiges  Fortes précipitations  Vent > 20 kt
SIGMETs :   Divers  Orages  Givrage  Turbulence  Onde Orograph.  Cendres Volcan.







- Altitude de l'aérodrome : 231 ft
- Code IATA : WTN


EGXW - RAF Waddington

DERNIER METAR :
  • 242050Z 31012KT 5000 RA BKN003 10/10 Q1003 YLO2

METARs EXPIRÉS :
  • 241950Z 23014KT 9999 -RA SCT004 BKN250 13/12 Q1003 RERA YLO2
  • 241850Z 19011KT 6000 -RADZ FEW005 BKN008 12/12 Q1003 GRN

TAF TAF EGXW
Valide du 24 à 21h jusqu'au 25 à 15h UTC


241929Z 2421/2515 21012KT 9999 -RA BKN008
TEMPO 2421/2422 22015G25KT 4000 RA BKN004
BECMG 2422/2424 26010KT NSW BKN030
PROB40
TEMPO 2500/2508 SCT018
PROB30
TEMPO 2500/2506 SCT012
PROB40
TEMPO 2510/2515 26015G25KT 7000 SHRA SCT025CB
Pas de NOTAMs connus pour ce terrain.



MET'MAP, la Météo Aéronautique d'un coup d'oeil ! - Copyright ORBIFLY Décembre 2007 - Disclaimer

ORBIFLY MET'MAP TEAM :

Programmation & Développement : Alexandra Zaïnal
Conception & Développement : Baudouin d'Aumeries
Co-Programmation & Développement : Marc-Olivier Méhu
Soutien technique & logistique : Manuel Goepfert

Contact : metmap@orbifly.com




SOURCES & CREDITS :

   NOAA